createdAt,value
2018-04-14T00:00:33.959Z,46.47
2018-04-14T00:02:59.948Z,43.90
2018-04-14T00:05:26.730Z,42.03
2018-04-14T00:07:52.706Z,46.80
2018-04-14T00:10:18.689Z,45.73
2018-04-14T00:12:44.712Z,43.03
2018-04-14T00:15:10.716Z,44.47
2018-04-14T00:17:36.713Z,45.77
2018-04-14T00:20:02.728Z,45.40
2018-04-14T00:22:28.720Z,43.97
2018-04-14T00:24:54.753Z,43.80
2018-04-14T00:27:20.749Z,43.73
2018-04-14T00:29:46.737Z,41.17
2018-04-14T00:32:12.782Z,43.63
2018-04-14T00:34:38.782Z,45.30
2018-04-14T00:37:04.775Z,43.97
2018-04-14T00:39:30.787Z,43.30
2018-04-14T00:41:56.790Z,45.70
2018-04-14T00:44:22.829Z,45.57
2018-04-14T00:46:49.574Z,45.27
2018-04-14T00:49:15.593Z,44.93
2018-04-14T00:51:41.607Z,41.87
2018-04-14T00:54:07.610Z,44.40
2018-04-14T00:56:33.615Z,41.63
2018-04-14T00:58:59.617Z,41.70
2018-04-14T01:01:25.640Z,43.07
2018-04-14T01:03:51.649Z,39.90
2018-04-14T01:06:17.636Z,42.03
2018-04-14T01:08:43.638Z,41.13
2018-04-14T01:11:09.650Z,40.10
2018-04-14T01:13:35.634Z,43.17
2018-04-14T01:16:01.657Z,42.27
2018-04-14T01:18:27.659Z,41.53
2018-04-14T01:20:53.679Z,42.30
2018-04-14T01:23:19.740Z,39.67
2018-04-14T01:25:45.762Z,42.13
2018-04-14T01:28:11.833Z,41.77
2018-04-14T01:30:37.841Z,39.97
2018-04-14T01:33:04.587Z,43.40
2018-04-14T01:35:30.596Z,42.43
2018-04-14T01:37:56.613Z,41.13
2018-04-14T01:40:22.592Z,41.47
2018-04-14T01:42:48.610Z,40.37
2018-04-14T01:45:14.604Z,39.80
2018-04-14T01:47:41.362Z,41.30
2018-04-14T01:50:07.403Z,39.73
2018-04-14T01:52:33.447Z,38.47
2018-04-14T01:54:59.523Z,39.63
2018-04-14T01:57:25.565Z,38.83
2018-04-14T01:59:52.323Z,38.93
2018-04-14T02:02:19.075Z,39.23
2018-04-14T02:04:45.086Z,37.97
2018-04-14T02:07:11.088Z,40.10
2018-04-14T02:09:37.080Z,38.93
2018-04-14T02:12:03.071Z,36.13
2018-04-14T02:14:29.070Z,37.23
2018-04-14T02:16:55.074Z,38.17
2018-04-14T02:19:21.104Z,37.10
2018-04-14T02:21:47.950Z,37.13
2018-04-14T02:24:13.925Z,39.43
2018-04-14T02:26:40.688Z,39.13
2018-04-14T02:29:07.455Z,36.37
2018-04-14T02:31:33.470Z,35.93
2018-04-14T02:33:59.483Z,37.60
2018-04-14T02:36:25.502Z,37.03
2018-04-14T02:38:52.253Z,38.27
2018-04-14T02:41:19.003Z,39.57
2018-04-14T02:43:45.757Z,39.60
2018-04-14T02:46:12.490Z,39.10
2018-04-14T02:48:39.219Z,39.80
2018-04-14T02:51:05.252Z,43.43
2018-04-14T02:53:31.256Z,40.77
2018-04-14T02:55:57.302Z,42.53
2018-04-14T02:58:23.303Z,42.80
2018-04-14T03:00:49.298Z,42.90
2018-04-14T03:03:15.289Z,42.93
2018-04-14T03:05:41.280Z,44.10
2018-04-14T03:08:07.278Z,44.50
2018-04-14T03:10:33.289Z,43.77
2018-04-14T03:12:59.289Z,44.33
2018-04-14T03:15:25.324Z,44.37
2018-04-14T03:17:51.377Z,44.43
2018-04-14T03:20:17.374Z,43.00
2018-04-14T03:22:43.949Z,45.60
2018-04-14T03:25:10.694Z,42.93
2018-04-14T03:27:36.717Z,44.60
2018-04-14T03:30:02.733Z,46.10
2018-04-14T03:32:30.225Z,46.33
2018-04-14T03:34:56.948Z,45.00
2018-04-14T03:37:22.970Z,47.03
2018-04-14T03:39:49.688Z,48.00
2018-04-14T03:42:15.698Z,51.03
2018-04-14T03:44:41.676Z,54.27
2018-04-14T03:47:07.661Z,54.70
2018-04-14T03:49:33.656Z,56.33
2018-04-14T03:51:59.676Z,56.80
2018-04-14T03:54:26.468Z,56.17
2018-04-14T03:56:52.506Z,56.73
2018-04-14T03:59:18.518Z,57.30
2018-04-14T04:01:44.547Z,58.57
2018-04-14T04:04:10.554Z,56.43
2018-04-14T04:06:37.296Z,56.90
2018-04-14T04:09:04.015Z,57.67
2018-04-14T04:11:30.030Z,59.20
2018-04-14T04:13:56.006Z,63.10
2018-04-14T04:16:22.022Z,61.83
2018-04-14T04:19:00.354Z,64.50
2018-04-14T04:21:38.722Z,59.70
2018-04-14T04:24:18.222Z,59.87
2018-04-14T04:26:44.218Z,61.80
2018-04-14T04:29:10.207Z,62.80
2018-04-14T04:31:36.208Z,63.37
2018-04-14T04:34:02.250Z,66.23
2018-04-14T04:36:28.237Z,73.70
2018-04-14T04:38:54.223Z,74.13
2018-04-14T04:41:20.212Z,72.27
2018-04-14T04:43:46.193Z,79.57
2018-04-14T04:46:12.182Z,83.50
2018-04-14T04:48:38.172Z,80.90
2018-04-14T04:51:04.169Z,80.93
2018-04-14T04:53:30.142Z,83.57
2018-04-14T04:55:56.131Z,86.47
2018-04-14T04:58:22.191Z,85.03
2018-04-14T05:00:48.181Z,86.57
2018-04-14T05:03:14.169Z,84.23
2018-04-14T05:05:40.136Z,88.60
2018-04-14T05:08:06.117Z,92.93
2018-04-14T05:10:32.132Z,91.60
2018-04-14T05:12:58.132Z,89.03
2018-04-14T05:15:24.137Z,90.70
2018-04-14T05:17:50.141Z,89.77
2018-04-14T05:20:16.153Z,84.80
2018-04-14T05:22:42.134Z,84.17
2018-04-14T05:25:08.171Z,85.93
2018-04-14T05:27:34.187Z,85.07
2018-04-14T05:30:00.396Z,87.13
2018-04-14T05:32:26.576Z,85.17
2018-04-14T05:34:53.332Z,83.23
2018-04-14T05:37:20.060Z,83.57
2018-04-14T05:39:46.050Z,83.20
2018-04-14T05:42:12.045Z,83.20
2018-04-14T05:44:38.043Z,86.07
2018-04-14T05:47:04.054Z,82.77
2018-04-14T05:49:30.058Z,81.70
2018-04-14T05:51:56.082Z,84.57
2018-04-14T05:54:22.073Z,76.07
2018-04-14T05:56:48.867Z,76.53
2018-04-14T05:59:14.880Z,73.43
2018-04-14T06:01:40.881Z,72.43
2018-04-14T06:04:06.883Z,68.80
2018-04-14T06:06:32.887Z,69.93
2018-04-14T06:08:58.896Z,66.57
2018-04-14T06:11:24.911Z,61.17
2018-04-14T06:13:50.948Z,62.13
2018-04-14T06:16:16.972Z,60.30
2018-04-14T06:18:42.986Z,57.40
2018-04-14T06:21:08.981Z,53.47
2018-04-14T06:23:36.908Z,53.33
2018-04-14T06:26:02.904Z,50.10
2018-04-14T06:28:28.956Z,48.33
2018-04-14T06:30:54.933Z,48.57
2018-04-14T06:33:20.971Z,47.97
2018-04-14T06:35:48.510Z,46.57
2018-04-14T06:38:14.513Z,47.80
2018-04-14T06:40:40.528Z,47.63
2018-04-14T06:43:06.603Z,47.00
2018-04-14T06:45:32.625Z,49.23
2018-04-14T06:47:58.609Z,45.57
2018-04-14T06:50:24.613Z,47.30
2018-04-14T06:52:50.701Z,45.67
2018-04-14T06:55:16.714Z,46.07
2018-04-14T06:57:42.774Z,45.03
2018-04-14T07:00:08.800Z,42.37
2018-04-14T07:02:35.408Z,46.50
2018-04-14T07:05:01.456Z,45.50
2018-04-14T07:07:27.451Z,42.47
2018-04-14T07:09:53.506Z,46.67
2018-04-14T07:12:19.556Z,43.70
2018-04-14T07:14:45.570Z,44.23
2018-04-14T07:17:11.565Z,45.67
2018-04-14T07:19:38.297Z,43.03
2018-04-14T07:22:05.013Z,43.80
2018-04-14T07:24:31.828Z,43.40
2018-04-14T07:26:57.883Z,41.57
2018-04-14T07:29:23.892Z,44.03
2018-04-14T07:31:50.938Z,40.97
2018-04-14T07:34:17.083Z,40.43
2018-04-14T07:36:43.110Z,40.57
2018-04-14T07:39:09.174Z,36.57
2018-04-14T07:41:35.166Z,41.13
2018-04-14T07:44:01.185Z,39.17
2018-04-14T07:46:27.229Z,41.47
2018-04-14T07:48:53.259Z,37.83
2018-04-14T07:51:19.271Z,40.73
2018-04-14T07:53:45.298Z,37.20
2018-04-14T07:56:11.304Z,38.40
2018-04-14T07:58:37.317Z,38.00
2018-04-14T08:01:03.353Z,39.50
2018-04-14T08:03:30.127Z,39.93
2018-04-14T08:05:56.168Z,37.57
2018-04-14T08:08:22.180Z,35.20
2018-04-14T08:10:48.194Z,37.70
2018-04-14T08:13:14.944Z,36.30
2018-04-14T08:15:42.018Z,38.50
2018-04-14T08:18:08.050Z,38.13
2018-04-14T08:20:34.533Z,35.97
2018-04-14T08:23:00.560Z,37.90
2018-04-14T08:25:26.561Z,38.93
2018-04-14T08:27:52.578Z,37.77
2018-04-14T08:30:18.572Z,38.10
2018-04-14T08:32:44.588Z,35.10
2018-04-14T08:35:10.590Z,36.03
2018-04-14T08:37:36.644Z,38.15
2018-04-14T08:40:03.447Z,36.67
2018-04-14T08:42:29.453Z,36.40
2018-04-14T08:44:56.210Z,37.33
2018-04-14T08:47:22.287Z,35.00
2018-04-14T08:49:48.246Z,35.20
2018-04-14T08:52:15.026Z,37.55
2018-04-14T08:54:41.040Z,35.60
2018-04-14T08:57:07.064Z,35.67
2018-04-14T08:59:33.078Z,35.17
2018-04-14T09:01:59.108Z,34.53
2018-04-14T09:04:25.853Z,35.75
2018-04-14T09:06:52.609Z,36.28
2018-04-14T09:09:19.337Z,34.72
2018-04-14T09:11:46.078Z,36.47
2018-04-14T09:14:12.842Z,34.83
2018-04-14T09:16:39.585Z,34.78
2018-04-14T09:19:06.370Z,37.75
2018-04-14T09:21:32.373Z,33.15
2018-04-14T09:23:58.369Z,33.95
2018-04-14T09:26:25.119Z,38.08
2018-04-14T09:28:51.117Z,35.80
2018-04-14T09:31:17.132Z,35.13
2018-04-14T09:33:43.131Z,35.55
2018-04-14T09:36:09.659Z,39.45
2018-04-14T09:38:35.665Z,37.75
2018-04-14T09:41:01.661Z,36.95
2018-04-14T09:43:27.705Z,39.55
2018-04-14T09:45:53.776Z,39.83
2018-04-14T09:48:22.458Z,38.50
2018-04-14T09:50:48.538Z,39.30
2018-04-14T09:53:14.541Z,38.28
2018-04-14T09:55:40.559Z,37.13
2018-04-14T09:58:06.557Z,36.17
2018-04-14T10:00:32.584Z,40.17
2018-04-14T10:02:59.406Z,36.08
2018-04-14T10:05:25.372Z,36.22
2018-04-14T10:07:51.401Z,37.40
2018-04-14T10:10:19.429Z,36.33
2018-04-14T10:12:46.143Z,31.65
2018-04-14T10:15:12.941Z,32.60
2018-04-14T10:17:38.930Z,34.22
2018-04-14T10:20:04.994Z,29.58
2018-04-14T10:22:31.015Z,27.25
2018-04-14T10:24:57.019Z,26.75
2018-04-14T10:27:23.069Z,29.70
2018-04-14T10:29:49.074Z,28.20
2018-04-14T10:32:15.099Z,29.35
2018-04-14T10:34:41.110Z,30.15
2018-04-14T10:37:07.105Z,30.45
2018-04-14T10:39:33.186Z,32.67
2018-04-14T10:41:59.271Z,31.65
2018-04-14T10:44:25.336Z,29.77
2018-04-14T10:46:51.349Z,25.65
2018-04-14T10:49:17.375Z,28.75
2018-04-14T10:51:43.420Z,30.37
2018-04-14T10:54:09.478Z,31.80
2018-04-14T10:56:35.486Z,30.62
2018-04-14T10:59:01.484Z,31.48
2018-04-14T11:01:27.473Z,30.52
2018-04-14T11:03:53.525Z,32.80
2018-04-14T11:06:19.569Z,33.88
2018-04-14T11:08:45.596Z,34.85
2018-04-14T11:11:11.617Z,32.05
2018-04-14T11:13:37.668Z,35.40
2018-04-14T11:16:04.409Z,36.22
2018-04-14T11:18:30.586Z,34.47
2018-04-14T11:20:56.695Z,36.03
2018-04-14T11:23:22.719Z,32.35
2018-04-14T11:25:48.826Z,33.70
2018-04-14T11:28:14.837Z,31.98
2018-04-14T11:30:40.853Z,36.15
2018-04-14T11:33:06.830Z,35.63
2018-04-14T11:35:32.867Z,32.25
2018-04-14T11:37:58.877Z,32.65
2018-04-14T11:40:24.906Z,31.00
2018-04-14T11:42:50.909Z,31.92
2018-04-14T11:45:16.897Z,33.60
2018-04-14T11:47:42.908Z,31.30
2018-04-14T11:50:08.902Z,31.58
2018-04-14T11:52:34.900Z,33.72
2018-04-14T11:55:00.888Z,32.30
2018-04-14T11:57:27.674Z,32.00
2018-04-14T11:59:53.692Z,33.05
2018-04-14T12:02:19.757Z,32.97
2018-04-14T12:04:45.733Z,34.60
2018-04-14T12:07:11.729Z,31.35
2018-04-14T12:09:37.750Z,32.88
2018-04-14T12:12:03.803Z,31.90
2018-04-14T12:14:29.793Z,31.92
2018-04-14T12:16:55.780Z,33.13
2018-04-14T12:19:22.515Z,31.83
2018-04-14T12:21:49.243Z,29.52
2018-04-14T12:24:15.250Z,29.23
2018-04-14T12:26:41.241Z,30.98
2018-04-14T12:29:08.383Z,32.97
2018-04-14T12:31:34.393Z,33.20
2018-04-14T12:34:00.421Z,32.83
2018-04-14T12:36:26.429Z,32.28
2018-04-14T12:38:52.424Z,32.38
2018-04-14T12:41:27.169Z,33.72
2018-04-14T12:43:53.170Z,33.63
2018-04-14T12:46:19.208Z,33.92
2018-04-14T12:48:45.241Z,33.00
2018-04-14T12:51:11.246Z,32.88
2018-04-14T12:53:37.286Z,33.25
2018-04-14T12:56:03.331Z,32.75
2018-04-14T12:58:29.317Z,32.28
2018-04-14T13:00:55.394Z,32.70
2018-04-14T13:03:21.405Z,32.88
2018-04-14T13:05:47.499Z,34.67
2018-04-14T13:08:13.532Z,31.58
2018-04-14T13:10:39.656Z,32.45
2018-04-14T13:13:05.711Z,33.17
2018-04-14T13:15:32.462Z,34.97
2018-04-14T13:17:59.239Z,34.83
2018-04-14T13:20:25.269Z,34.20
2018-04-14T13:22:52.184Z,33.33
2018-04-14T13:25:18.181Z,33.75
2018-04-14T13:27:44.161Z,30.92
2018-04-14T13:30:10.184Z,33.70
2018-04-14T13:32:36.199Z,35.72
2018-04-14T13:35:02.216Z,32.80
2018-04-14T13:37:28.223Z,32.58
2018-04-14T13:39:54.226Z,31.98
2018-04-14T13:42:20.230Z,33.22
2018-04-14T13:44:46.242Z,29.60
2018-04-14T13:47:12.281Z,32.05
2018-04-14T13:49:38.266Z,31.40
2018-04-14T13:52:04.290Z,32.08
2018-04-14T13:54:30.298Z,32.38
2018-04-14T13:56:56.331Z,33.58
2018-04-14T13:59:22.335Z,29.85
2018-04-14T14:01:48.353Z,31.95
2018-04-14T14:04:14.351Z,32.13
2018-04-14T14:06:40.379Z,32.53
2018-04-14T14:09:07.114Z,32.70
2018-04-14T14:11:33.113Z,33.38
2018-04-14T14:13:59.425Z,34.92
2018-04-14T14:16:25.406Z,32.72
2018-04-14T14:18:51.409Z,32.60
2018-04-14T14:21:17.446Z,34.65
2018-04-14T14:23:43.452Z,31.95
2018-04-14T14:26:09.453Z,31.65
2018-04-14T14:28:35.503Z,31.73
2018-04-14T14:31:01.479Z,32.83
2018-04-14T14:33:27.480Z,31.87
2018-04-14T14:35:53.486Z,31.15
2018-04-14T14:38:19.507Z,32.72
2018-04-14T14:40:45.568Z,33.08
2018-04-14T14:43:11.549Z,30.50
2018-04-14T14:45:37.545Z,33.13
2018-04-14T14:48:03.627Z,33.80
2018-04-14T14:50:29.625Z,33.75
2018-04-14T14:52:55.638Z,34.75
2018-04-14T14:55:22.841Z,33.30
2018-04-14T14:57:48.841Z,33.65
2018-04-14T15:00:14.825Z,32.00
2018-04-14T15:02:41.031Z,34.17
2018-04-14T15:05:07.019Z,33.08
2018-04-14T15:07:33.017Z,33.63
2018-04-14T15:09:59.015Z,33.70
2018-04-14T15:12:25.006Z,33.22
2018-04-14T15:14:51.777Z,32.60
2018-04-14T15:17:17.765Z,33.30
2018-04-14T15:19:43.831Z,31.37
2018-04-14T15:22:09.830Z,32.85
2018-04-14T15:24:36.577Z,33.28
2018-04-14T15:27:03.319Z,34.05
2018-04-14T15:29:30.094Z,33.90
2018-04-14T15:31:56.293Z,32.42
2018-04-14T15:34:22.349Z,33.72
2018-04-14T15:36:49.132Z,33.72
2018-04-14T15:39:15.138Z,33.25
2018-04-14T15:41:41.893Z,32.45
2018-04-14T15:44:07.901Z,32.75
2018-04-14T15:46:33.953Z,33.13
2018-04-14T15:48:59.945Z,33.10
2018-04-14T15:51:26.726Z,32.90
2018-04-14T15:53:52.750Z,33.97
2018-04-14T15:56:18.792Z,32.10
2018-04-14T15:58:44.814Z,32.40
2018-04-14T16:01:10.858Z,32.67
2018-04-14T16:03:44.627Z,33.95
2018-04-14T16:06:02.883Z,33.25
2018-04-14T16:08:29.626Z,32.75
2018-04-14T16:10:56.415Z,32.60
2018-04-14T16:13:22.468Z,33.13
2018-04-14T16:15:48.565Z,32.72
2018-04-14T16:18:15.119Z,31.60
2018-04-14T16:20:41.225Z,33.25
2018-04-14T16:23:10.862Z,33.78
2018-04-14T16:25:37.894Z,32.88
2018-04-14T16:28:10.837Z,33.03
2018-04-14T16:30:37.102Z,32.25
2018-04-14T16:33:03.834Z,32.95
2018-04-14T16:35:29.862Z,32.47
2018-04-14T16:37:56.313Z,33.25
2018-04-14T16:40:22.321Z,32.97
2018-04-14T16:42:48.343Z,32.80
2018-04-14T16:45:14.345Z,30.92
2018-04-14T16:47:40.333Z,30.62
2018-04-14T16:50:07.079Z,32.25
2018-04-14T16:52:33.798Z,32.08
2018-04-14T16:54:59.851Z,31.92
2018-04-14T16:57:25.816Z,30.88
2018-04-14T16:59:51.900Z,31.87
2018-04-14T17:02:18.730Z,30.80
2018-04-14T17:04:44.792Z,31.20
2018-04-14T17:07:11.541Z,30.23
2018-04-14T17:09:38.331Z,30.98
2018-04-14T17:12:04.370Z,32.42
2018-04-14T17:14:30.374Z,30.92
2018-04-14T17:16:56.373Z,32.20
2018-04-14T17:19:24.090Z,32.38
2018-04-14T17:21:50.099Z,35.88
2018-04-14T17:24:16.090Z,32.85
2018-04-14T17:26:42.110Z,32.40
2018-04-14T17:29:08.848Z,34.95
2018-04-14T17:31:34.897Z,37.45
2018-04-14T17:34:00.949Z,33.22
2018-04-14T17:36:27.873Z,32.95
2018-04-14T17:38:54.622Z,32.43
2018-04-14T17:41:21.408Z,31.40
2018-04-14T17:43:47.381Z,32.20
2018-04-14T17:46:13.430Z,34.17
2018-04-14T17:48:39.437Z,32.90
2018-04-14T17:51:07.094Z,32.00
2018-04-14T17:53:33.110Z,30.63
2018-04-14T17:55:59.114Z,32.97
2018-04-14T17:58:25.154Z,30.33
2018-04-14T18:00:51.259Z,32.40
2018-04-14T18:03:17.274Z,31.47
2018-04-14T18:05:43.376Z,31.27
2018-04-14T18:08:09.522Z,31.13
2018-04-14T18:10:35.526Z,29.93
2018-04-14T18:13:01.614Z,31.63
2018-04-14T18:15:27.663Z,31.50
2018-04-14T18:17:53.678Z,31.37
2018-04-14T18:20:19.696Z,31.27
2018-04-14T18:22:45.689Z,30.10
2018-04-14T18:25:12.421Z,30.53
2018-04-14T18:27:38.436Z,30.57
2018-04-14T18:30:04.463Z,32.83
2018-04-14T18:32:30.453Z,32.17
2018-04-14T18:34:56.452Z,33.00
2018-04-14T18:37:22.430Z,31.63
2018-04-14T18:39:48.413Z,32.77
2018-04-14T18:42:14.414Z,32.87
2018-04-14T18:44:40.402Z,34.30
2018-04-14T18:47:06.381Z,34.97
2018-04-14T18:49:32.391Z,35.20
2018-04-14T18:51:58.385Z,35.57
2018-04-14T18:54:24.388Z,35.03
2018-04-14T18:56:51.189Z,32.07
2018-04-14T18:59:17.181Z,30.80
2018-04-14T19:01:43.201Z,28.87
2018-04-14T19:04:09.209Z,29.33
2018-04-14T19:06:35.233Z,28.20
2018-04-14T19:09:01.301Z,27.60
2018-04-14T19:11:27.294Z,27.33
2018-04-14T19:13:53.294Z,28.50
2018-04-14T19:16:19.314Z,28.77
2018-04-14T19:18:45.318Z,28.30
2018-04-14T19:21:11.942Z,30.03
2018-04-14T19:23:37.967Z,29.50
2018-04-14T19:26:04.768Z,29.40
2018-04-14T19:28:30.749Z,29.60
2018-04-14T19:30:56.735Z,28.57
2018-04-14T19:33:22.733Z,29.63
2018-04-14T19:35:48.822Z,28.80
2018-04-14T19:38:14.822Z,30.63
2018-04-14T19:40:40.837Z,30.70
2018-04-14T19:43:06.822Z,31.40
2018-04-14T19:45:32.843Z,29.53
2018-04-14T19:47:59.662Z,30.67
2018-04-14T19:50:25.634Z,29.33
2018-04-14T19:52:52.420Z,31.23
2018-04-14T19:55:18.415Z,29.87
2018-04-14T19:57:44.412Z,30.07
2018-04-14T20:00:10.426Z,32.23
2018-04-14T20:02:36.412Z,30.70
2018-04-14T20:05:02.411Z,30.57
2018-04-14T20:07:28.430Z,30.87
2018-04-14T20:09:55.181Z,31.07
2018-04-14T20:12:21.197Z,30.03
2018-04-14T20:14:47.558Z,29.93
2018-04-14T20:17:14.294Z,31.60
2018-04-14T20:19:41.053Z,31.00
2018-04-14T20:22:07.005Z,30.80
2018-04-14T20:24:32.992Z,30.83
2018-04-14T20:26:58.986Z,29.30
2018-04-14T20:29:25.815Z,31.50
2018-04-14T20:31:51.880Z,31.93
2018-04-14T20:34:17.894Z,30.00
2018-04-14T20:36:43.997Z,30.23
2018-04-14T20:39:10.084Z,31.47
2018-04-14T20:41:36.105Z,30.47
2018-04-14T20:44:02.146Z,32.27
2018-04-14T20:46:28.952Z,30.87
2018-04-14T20:48:54.944Z,30.17
2018-04-14T20:51:20.953Z,31.17
2018-04-14T20:53:47.768Z,30.27
2018-04-14T20:56:13.774Z,31.60
2018-04-14T20:58:39.781Z,29.80
2018-04-14T21:01:05.804Z,30.60
2018-04-14T21:03:31.812Z,29.63
2018-04-14T21:05:58.590Z,29.77
2018-04-14T21:08:24.581Z,29.00
2018-04-14T21:10:50.569Z,29.50
2018-04-14T21:13:16.555Z,30.53
2018-04-14T21:15:42.551Z,30.00
2018-04-14T21:18:08.644Z,31.67
2018-04-14T21:20:34.639Z,29.70
2018-04-14T21:23:00.625Z,31.47
2018-04-14T21:25:26.692Z,29.67
2018-04-14T21:27:53.438Z,31.87
2018-04-14T21:30:20.402Z,30.00
2018-04-14T21:32:46.447Z,31.13
2018-04-14T21:35:12.425Z,30.00
2018-04-14T21:37:38.705Z,30.57
2018-04-14T21:40:04.699Z,32.23
2018-04-14T21:42:31.478Z,30.80
2018-04-14T21:44:57.538Z,30.03
2018-04-14T21:47:23.638Z,30.63
2018-04-14T21:49:51.641Z,31.50
2018-04-14T21:52:19.782Z,30.30
2018-04-14T21:54:46.047Z,29.70
2018-04-14T21:57:12.075Z,30.70
2018-04-14T21:59:38.074Z,30.57
2018-04-14T22:02:04.854Z,30.63
2018-04-14T22:04:32.682Z,29.60
2018-04-14T22:06:58.818Z,30.70
2018-04-14T22:09:24.850Z,31.27
2018-04-14T22:11:51.001Z,30.33
2018-04-14T22:14:29.321Z,29.77
2018-04-14T22:16:55.329Z,29.20
2018-04-14T22:19:21.428Z,31.70
2018-04-14T22:21:48.995Z,30.53
2018-04-14T22:24:15.183Z,32.80
2018-04-14T22:26:41.190Z,35.50
2018-04-14T22:29:07.945Z,39.80
2018-04-14T22:31:34.501Z,41.20
2018-04-14T22:34:00.499Z,43.97
2018-04-14T22:36:27.402Z,43.30
2018-04-14T22:38:53.466Z,41.97
2018-04-14T22:41:19.453Z,40.53
2018-04-14T22:43:45.457Z,43.20
2018-04-14T22:46:11.444Z,45.07
2018-04-14T22:48:37.422Z,42.70
2018-04-14T22:51:03.451Z,42.27
2018-04-14T22:53:29.454Z,42.27
2018-04-14T22:55:55.437Z,40.13
2018-04-14T22:58:21.427Z,40.73
2018-04-14T23:00:47.422Z,42.07
2018-04-14T23:03:13.442Z,41.33
2018-04-14T23:05:39.441Z,39.97
2018-04-14T23:08:05.426Z,41.67
2018-04-14T23:10:31.485Z,42.30
2018-04-14T23:12:58.307Z,41.73
2018-04-14T23:15:24.305Z,44.23
2018-04-14T23:17:50.278Z,45.87
2018-04-14T23:20:16.302Z,41.23
2018-04-14T23:22:42.317Z,42.27
2018-04-14T23:25:08.325Z,43.27
2018-04-14T23:27:34.386Z,40.37
2018-04-14T23:30:00.390Z,40.77
2018-04-14T23:32:26.392Z,40.67
2018-04-14T23:34:52.404Z,41.37
2018-04-14T23:37:18.409Z,42.07
2018-04-14T23:39:44.423Z,46.70
2018-04-14T23:42:10.426Z,48.67
2018-04-14T23:44:36.413Z,49.83
2018-04-14T23:47:02.406Z,47.53
2018-04-14T23:49:28.394Z,46.17
2018-04-14T23:51:54.382Z,49.77
2018-04-14T23:54:20.434Z,53.97
2018-04-14T23:56:46.424Z,49.83
2018-04-14T23:59:12.415Z,48.23
